Time;durP1;ratioP1;P1;durP2;ratioP2;P2;SDS_P1;SDS_P2;PMS_P1;PMS_P2;Temp;Humidity;BMP_temperature;BMP_pressure;BME280_temperature;BME280_humidity;BME280_pressure;Samples;Min_cycle;Max_cycle;Signal;HPM_P1;HPM_P2
2022/10/06 00:01:36;;;;;;;11.52;9.15;;;;;;;;;;5065270;28;20028;-53
2022/10/06 00:04:01;;;;;;;16.73;9.35;;;;;;;;;;5083354;28;20036;-47
2022/10/06 00:06:26;;;;;;;10.82;9.45;;;;;;;;;;5085698;28;20024;-50
2022/10/06 00:08:52;;;;;;;10.23;9.13;;;;;;;;;;5086419;28;20514;-52
2022/10/06 00:11:17;;;;;;;9.93;8.50;;;;;;;;;;5088338;28;20024;-47
2022/10/06 00:13:43;;;;;;;11.48;8.73;;;;;;;;;;5070747;28;20086;-47
2022/10/06 00:16:21;;;;;;;11.80;8.20;;;;;;;;;;5065768;28;20157;-48
2022/10/06 00:18:46;;;;;;;13.40;8.88;;;;;;;;;;5063536;28;20560;-49
2022/10/06 00:21:11;;;;;;;11.90;8.60;;;;;;;;;;5062952;28;20116;-54
2022/10/06 00:23:37;;;;;;;15.02;8.00;;;;;;;;;;5082146;28;20476;-53
2022/10/06 00:26:02;;;;;;;9.30;8.40;;;;;;;;;;5085186;28;20731;-54
2022/10/06 00:28:28;;;;;;;11.48;8.30;;;;;;;;;;5086342;28;20036;-47
2022/10/06 00:30:55;;;;;;;8.50;7.60;;;;;;;;;;5087898;28;20488;-48
2022/10/06 00:33:20;;;;;;;11.27;7.90;;;;;;;;;;5085648;28;20036;-48
2022/10/06 00:35:46;;;;;;;10.75;7.70;;;;;;;;;;5086097;28;20028;-47
2022/10/06 00:38:14;;;;;;;16.33;7.78;;;;;;;;;;5069019;28;20047;-53
2022/10/06 00:40:46;;;;;;;12.35;6.82;;;;;;;;;;5063542;28;20150;-46
2022/10/06 00:43:50;;;;;;;10.80;6.60;;;;;;;;;;5064306;28;20040;-49
2022/10/06 00:46:46;;;;;;;6.93;5.85;;;;;;;;;;5066001;28;20052;-50
2022/10/06 00:49:21;;;;;;;9.43;5.93;;;;;;;;;;5084547;28;20040;-53
2022/10/06 00:51:56;;;;;;;8.15;6.40;;;;;;;;;;5083970;28;20544;-51
2022/10/06 00:54:22;;;;;;;10.93;6.65;;;;;;;;;;5065457;28;20034;-48
2022/10/06 00:56:47;;;;;;;8.57;5.72;;;;;;;;;;5061903;28;20037;-49
2022/10/06 00:59:15;;;;;;;7.13;5.70;;;;;;;;;;5064097;28;20059;-49
2022/10/06 01:01:47;;;;;;;12.27;6.47;;;;;;;;;;5065856;28;20111;-47
2022/10/06 01:04:14;;;;;;;8.98;6.35;;;;;;;;;;5084519;28;20071;-45
2022/10/06 01:06:44;;;;;;;7.82;5.60;;;;;;;;;;5082005;28;20074;-50
2022/10/06 01:09:10;;;;;;;8.65;5.93;;;;;;;;;;5082142;28;20085;-52
2022/10/06 01:11:36;;;;;;;8.23;5.60;;;;;;;;;;5087348;28;20115;-47
2022/10/06 01:14:02;;;;;;;8.05;5.07;;;;;;;;;;5086158;28;20433;-48
2022/10/06 01:16:28;;;;;;;9.45;5.38;;;;;;;;;;5084800;28;20161;-52
2022/10/06 01:18:54;;;;;;;6.75;4.90;;;;;;;;;;5070207;28;20105;-48
2022/10/06 01:21:33;;;;;;;11.55;5.80;;;;;;;;;;5064510;28;20017;-45
2022/10/06 01:24:01;;;;;;;11.68;5.43;;;;;;;;;;5064066;28;20552;-48
2022/10/06 01:26:28;;;;;;;6.45;4.78;;;;;;;;;;5061076;28;20028;-49
2022/10/06 01:28:53;;;;;;;10.10;5.65;;;;;;;;;;5063525;28;20089;-47
2022/10/06 01:31:19;;;;;;;11.15;4.90;;;;;;;;;;5062556;28;20024;-48
2022/10/06 01:33:50;;;;;;;8.50;4.82;;;;;;;;;;5062788;28;20093;-45
2022/10/06 01:36:15;;;;;;;7.70;5.15;;;;;;;;;;5075133;28;23604;-50
2022/10/06 01:38:40;;;;;;;8.50;5.03;;;;;;;;;;5059642;28;20131;-48
2022/10/06 01:41:06;;;;;;;10.77;5.10;;;;;;;;;;5063140;28;20071;-50
2022/10/06 01:43:31;;;;;;;11.60;5.07;;;;;;;;;;5062186;28;20530;-47
2022/10/06 01:45:57;;;;;;;9.43;4.40;;;;;;;;;;5065446;28;20036;-45
2022/10/06 01:48:24;;;;;;;6.60;4.70;;;;;;;;;;5062101;28;20986;-47
2022/10/06 01:50:49;;;;;;;9.57;4.35;;;;;;;;;;5064194;28;20086;-44
2022/10/06 01:53:15;;;;;;;5.25;4.43;;;;;;;;;;5069508;28;20037;-47
2022/10/06 01:55:40;;;;;;;9.10;4.47;;;;;;;;;;5067446;28;20028;-47
2022/10/06 01:58:06;;;;;;;7.43;4.63;;;;;;;;;;5065817;28;20036;-47
2022/10/06 02:00:31;;;;;;;8.10;5.10;;;;;;;;;;5070282;28;20477;-45
2022/10/06 02:02:57;;;;;;;7.72;5.20;;;;;;;;;;5077299;28;20097;-48
2022/10/06 02:05:22;;;;;;;8.98;4.82;;;;;;;;;;5087190;28;20384;-44
2022/10/06 02:07:48;;;;;;;7.22;4.72;;;;;;;;;;5085386;28;20471;-46
2022/10/06 02:10:13;;;;;;;5.60;4.70;;;;;;;;;;5085696;28;20025;-45
2022/10/06 02:12:38;;;;;;;10.65;4.32;;;;;;;;;;5079841;28;20072;-46
2022/10/06 02:15:05;;;;;;;6.50;4.43;;;;;;;;;;5068766;28;20056;-47
2022/10/06 02:17:30;;;;;;;5.53;4.50;;;;;;;;;;5066247;28;20131;-48
2022/10/06 02:19:55;;;;;;;6.25;4.22;;;;;;;;;;5067067;28;20107;-47
2022/10/06 02:22:21;;;;;;;7.45;4.70;;;;;;;;;;5069076;28;20044;-46
2022/10/06 02:24:46;;;;;;;13.00;4.75;;;;;;;;;;5067290;28;20492;-45
2022/10/06 02:27:12;;;;;;;8.18;4.30;;;;;;;;;;5067808;28;20028;-45
2022/10/06 02:29:37;;;;;;;9.15;4.63;;;;;;;;;;5066877;28;20051;-46
2022/10/06 02:32:02;;;;;;;7.07;4.35;;;;;;;;;;5066847;28;20064;-46
2022/10/06 02:34:28;;;;;;;7.10;4.00;;;;;;;;;;5066905;28;20024;-44
2022/10/06 02:36:53;;;;;;;7.93;4.78;;;;;;;;;;5069996;28;20063;-44
2022/10/06 02:39:19;;;;;;;8.70;4.28;;;;;;;;;;5082125;28;20062;-46
2022/10/06 02:41:45;;;;;;;8.50;4.07;;;;;;;;;;5087577;28;20421;-46
2022/10/06 02:44:10;;;;;;;7.00;4.43;;;;;;;;;;5088562;28;20055;-47
2022/10/06 02:46:36;;;;;;;4.63;4.18;;;;;;;;;;5088197;28;20125;-44
2022/10/06 02:49:01;;;;;;;11.70;4.20;;;;;;;;;;5085766;28;20097;-46
2022/10/06 02:51:27;;;;;;;7.65;4.32;;;;;;;;;;5088669;28;20396;-45
2022/10/06 02:53:53;;;;;;;7.00;3.85;;;;;;;;;;5090345;28;20032;-44
2022/10/06 02:56:21;;;;;;;5.32;3.65;;;;;;;;;;5086670;28;20056;-45
2022/10/06 02:58:47;;;;;;;5.80;4.22;;;;;;;;;;5084157;28;20086;-44
2022/10/06 03:01:19;;;;;;;8.77;4.30;;;;;;;;;;5086358;28;20024;-48
2022/10/06 03:03:48;;;;;;;5.53;3.75;;;;;;;;;;5086139;28;20084;-45
2022/10/06 03:06:22;;;;;;;6.57;4.07;;;;;;;;;;5086901;28;20086;-44
2022/10/06 03:08:51;;;;;;;7.03;3.60;;;;;;;;;;5069364;28;20078;-46
2022/10/06 03:11:22;;;;;;;5.85;3.80;;;;;;;;;;5069210;28;20086;-46
2022/10/06 03:13:49;;;;;;;7.45;4.20;;;;;;;;;;5063756;28;20378;-43
2022/10/06 03:16:21;;;;;;;10.18;3.80;;;;;;;;;;5069712;28;20385;-44
2022/10/06 03:18:48;;;;;;;5.00;3.65;;;;;;;;;;5065619;28;20044;-46
2022/10/06 03:21:15;;;;;;;7.10;3.72;;;;;;;;;;5067018;28;20032;-43
2022/10/06 03:23:45;;;;;;;6.10;3.45;;;;;;;;;;5084253;28;20067;-43
2022/10/06 03:26:11;;;;;;;8.18;3.60;;;;;;;;;;5091164;28;20058;-47
2022/10/06 03:28:38;;;;;;;6.75;3.25;;;;;;;;;;5069958;28;20040;-46
2022/10/06 03:31:04;;;;;;;8.27;4.07;;;;;;;;;;5067180;28;20028;-44
2022/10/06 03:33:30;;;;;;;4.13;3.38;;;;;;;;;;5082141;28;20628;-45
2022/10/06 03:36:01;;;;;;;4.15;3.10;;;;;;;;;;5079958;28;20131;-49
2022/10/06 03:38:30;;;;;;;6.90;3.83;;;;;;;;;;5070206;28;20036;-44
2022/10/06 03:41:06;;;;;;;8.65;4.55;;;;;;;;;;5069132;28;20052;-44
2022/10/06 03:43:32;;;;;;;5.70;3.33;;;;;;;;;;5077184;28;20051;-43
2022/10/06 03:45:59;;;;;;;7.20;3.17;;;;;;;;;;5084529;28;20043;-46
2022/10/06 03:48:26;;;;;;;7.78;3.60;;;;;;;;;;5083477;28;20033;-43
2022/10/06 03:50:56;;;;;;;7.88;3.97;;;;;;;;;;5087546;28;20073;-46
2022/10/06 03:53:24;;;;;;;6.22;3.33;;;;;;;;;;5082007;28;20028;-43
2022/10/06 03:56:17;;;;;;;6.10;3.45;;;;;;;;;;5088310;28;20074;-47
2022/10/06 03:58:45;;;;;;;6.03;3.45;;;;;;;;;;5079243;28;20045;-44
2022/10/06 04:01:20;;;;;;;4.38;2.88;;;;;;;;;;5086175;28;20533;-44
2022/10/06 04:03:45;;;;;;;5.20;3.67;;;;;;;;;;5086207;28;20098;-46
2022/10/06 04:06:13;;;;;;;4.88;3.30;;;;;;;;;;5086085;28;20477;-46
2022/10/06 04:08:39;;;;;;;7.05;3.10;;;;;;;;;;5081750;28;20508;-47
2022/10/06 04:11:10;;;;;;;5.60;3.38;;;;;;;;;;5083016;28;20047;-44
2022/10/06 04:13:35;;;;;;;7.20;3.95;;;;;;;;;;5086253;28;20040;-45
2022/10/06 04:16:14;;;;;;;6.00;3.55;;;;;;;;;;5086681;28;20361;-48
2022/10/06 04:18:41;;;;;;;6.43;3.58;;;;;;;;;;5084031;28;20040;-44
2022/10/06 04:21:07;;;;;;;7.15;4.10;;;;;;;;;;5086629;28;20020;-45
2022/10/06 04:23:33;;;;;;;10.13;4.57;;;;;;;;;;5068491;28;20055;-46
2022/10/06 04:26:01;;;;;;;9.18;4.97;;;;;;;;;;5064849;28;20028;-49
2022/10/06 04:28:27;;;;;;;5.10;4.18;;;;;;;;;;5079196;28;20047;-45
2022/10/06 04:30:59;;;;;;;7.68;4.10;;;;;;;;;;5084418;28;20188;-47
2022/10/06 04:33:25;;;;;;;5.53;4.43;;;;;;;;;;5085271;27;20098;-47
2022/10/06 04:35:58;;;;;;;5.15;4.57;;;;;;;;;;5083087;28;21002;-47
2022/10/06 04:38:24;;;;;;;9.25;5.25;;;;;;;;;;5081761;28;20039;-46
2022/10/06 04:40:50;;;;;;;8.18;4.85;;;;;;;;;;5081595;28;20040;-47
2022/10/06 04:43:16;;;;;;;5.85;4.25;;;;;;;;;;5076626;28;20045;-46
2022/10/06 04:45:41;;;;;;;7.25;4.32;;;;;;;;;;5082383;28;20048;-43
2022/10/06 04:48:07;;;;;;;8.13;4.18;;;;;;;;;;5070706;28;20052;-45
2022/10/06 04:50:32;;;;;;;8.68;4.60;;;;;;;;;;5066947;28;20033;-45
2022/10/06 04:52:58;;;;;;;4.57;4.18;;;;;;;;;;5060288;28;20544;-49
2022/10/06 04:55:23;;;;;;;10.00;4.35;;;;;;;;;;5064824;28;20040;-46
2022/10/06 04:57:48;;;;;;;5.13;4.13;;;;;;;;;;5063766;28;20041;-45
2022/10/06 05:00:24;;;;;;;8.27;4.40;;;;;;;;;;5059403;28;20115;-51
2022/10/06 05:02:51;;;;;;;5.97;4.20;;;;;;;;;;5064509;28;20051;-43
2022/10/06 05:05:16;;;;;;;5.03;3.83;;;;;;;;;;5064116;28;20082;-51
2022/10/06 05:07:44;;;;;;;9.77;4.40;;;;;;;;;;5058130;28;20062;-47
2022/10/06 05:10:10;;;;;;;4.40;4.00;;;;;;;;;;5062076;28;20025;-47
2022/10/06 05:12:35;;;;;;;8.98;4.93;;;;;;;;;;5067333;28;20139;-48
2022/10/06 05:15:00;;;;;;;5.60;4.20;;;;;;;;;;5061494;28;20457;-49
2022/10/06 05:17:26;;;;;;;7.47;4.00;;;;;;;;;;5063757;28;20072;-47
2022/10/06 05:19:52;;;;;;;11.80;4.18;;;;;;;;;;5059683;28;20044;-44
2022/10/06 05:22:17;;;;;;;7.15;3.97;;;;;;;;;;5061208;28;20520;-44
2022/10/06 05:24:42;;;;;;;8.20;3.75;;;;;;;;;;5064256;28;20116;-46
2022/10/06 05:27:08;;;;;;;4.88;4.20;;;;;;;;;;5068279;28;20117;-45
2022/10/06 05:29:33;;;;;;;7.85;3.55;;;;;;;;;;5065320;28;20060;-45
2022/10/06 05:31:59;;;;;;;6.70;3.55;;;;;;;;;;5065795;28;20067;-44
2022/10/06 05:34:24;;;;;;;5.65;3.80;;;;;;;;;;5064105;28;20832;-46
2022/10/06 05:36:50;;;;;;;5.28;3.50;;;;;;;;;;5066974;28;20024;-46
2022/10/06 05:39:15;;;;;;;7.15;3.58;;;;;;;;;;5065251;28;20024;-49
2022/10/06 05:41:40;;;;;;;5.95;4.07;;;;;;;;;;5068405;28;20036;-46
2022/10/06 05:44:07;;;;;;;9.93;3.35;;;;;;;;;;5088052;28;20079;-45
2022/10/06 05:46:33;;;;;;;13.00;3.92;;;;;;;;;;5088137;28;20068;-46
2022/10/06 05:49:00;;;;;;;8.80;4.05;;;;;;;;;;5085692;27;20076;-45
2022/10/06 05:51:28;;;;;;;8.02;3.67;;;;;;;;;;5084490;28;20016;-44
2022/10/06 05:53:54;;;;;;;4.57;3.33;;;;;;;;;;5073056;28;20040;-48
2022/10/06 05:56:24;;;;;;;7.93;3.72;;;;;;;;;;5065300;28;20033;-51
2022/10/06 05:58:52;;;;;;;5.93;3.55;;;;;;;;;;5066501;28;20036;-47
2022/10/06 06:01:23;;;;;;;8.23;3.60;;;;;;;;;;5069533;28;20025;-46
2022/10/06 06:03:53;;;;;;;6.88;3.80;;;;;;;;;;5085906;28;20123;-46
2022/10/06 06:06:25;;;;;;;8.55;3.60;;;;;;;;;;5085269;28;20024;-50
2022/10/06 06:08:53;;;;;;;5.90;3.40;;;;;;;;;;5087918;28;20050;-48
2022/10/06 06:11:24;;;;;;;11.48;4.00;;;;;;;;;;5079292;28;20432;-44
2022/10/06 06:13:52;;;;;;;7.22;3.92;;;;;;;;;;5061868;28;20456;-50
2022/10/06 06:16:17;;;;;;;7.40;3.47;;;;;;;;;;5060591;28;20029;-49
2022/10/06 06:18:42;;;;;;;12.13;3.88;;;;;;;;;;5066252;28;20044;-48
2022/10/06 06:21:09;;;;;;;7.18;3.92;;;;;;;;;;5071326;28;20863;-43
2022/10/06 06:23:45;;;;;;;6.05;3.80;;;;;;;;;;5070339;28;20350;-51
2022/10/06 06:26:13;;;;;;;5.18;3.22;;;;;;;;;;5068706;28;20380;-49
2022/10/06 06:28:39;;;;;;;7.57;3.65;;;;;;;;;;5066750;28;20054;-50
2022/10/06 06:31:08;;;;;;;6.75;3.70;;;;;;;;;;5064389;28;20498;-44
2022/10/06 06:33:36;;;;;;;5.45;3.55;;;;;;;;;;5066777;28;20147;-44
2022/10/06 06:36:03;;;;;;;7.32;3.60;;;;;;;;;;5067123;28;20733;-45
2022/10/06 06:38:30;;;;;;;7.70;3.60;;;;;;;;;;5081288;28;20036;-50
2022/10/06 06:40:56;;;;;;;16.40;3.95;;;;;;;;;;5088953;28;20033;-51
2022/10/06 06:43:21;;;;;;;12.07;4.07;;;;;;;;;;5086141;28;20036;-50
2022/10/06 06:45:47;;;;;;;6.63;3.30;;;;;;;;;;5087599;28;20036;-51
2022/10/06 06:48:14;;;;;;;10.80;3.15;;;;;;;;;;5075339;28;20037;-46
2022/10/06 06:50:40;;;;;;;6.13;4.03;;;;;;;;;;5068111;28;20032;-47
2022/10/06 06:53:05;;;;;;;5.13;3.38;;;;;;;;;;5066089;28;20036;-45
2022/10/06 06:55:31;;;;;;;3.47;3.10;;;;;;;;;;5067332;28;20500;-47
2022/10/06 06:57:56;;;;;;;8.65;3.38;;;;;;;;;;5065281;28;20412;-50
2022/10/06 07:00:22;;;;;;;7.75;3.70;;;;;;;;;;5066635;28;20373;-48
2022/10/06 07:02:54;;;;;;;7.55;3.72;;;;;;;;;;5059334;28;20033;-46
2022/10/06 07:05:20;;;;;;;11.95;3.47;;;;;;;;;;5065304;28;20028;-53
2022/10/06 07:07:46;;;;;;;4.28;3.03;;;;;;;;;;5065484;28;20378;-47
2022/10/06 07:10:11;;;;;;;9.07;3.17;;;;;;;;;;5063608;28;20037;-48
2022/10/06 07:12:36;;;;;;;6.43;3.13;;;;;;;;;;5062771;28;20045;-49
2022/10/06 07:26:17;;;;;;;11.63;5.50;;;;;;;;;;5044324;28;20482;-47
2022/10/06 07:28:42;;;;;;;9.20;4.90;;;;;;;;;;5038992;28;20042;-50
2022/10/06 07:31:08;;;;;;;7.15;4.88;;;;;;;;;;5038487;28;20048;-50
2022/10/06 07:33:33;;;;;;;10.57;5.10;;;;;;;;;;5041049;28;20048;-46
2022/10/06 07:35:58;;;;;;;10.63;4.72;;;;;;;;;;5042429;28;21271;-51
2022/10/06 07:38:24;;;;;;;13.88;5.07;;;;;;;;;;5042186;28;20195;-44
2022/10/06 07:40:57;;;;;;;13.60;5.82;;;;;;;;;;5041977;28;20052;-46
2022/10/06 07:43:22;;;;;;;12.10;6.30;;;;;;;;;;5037962;28;20494;-47
2022/10/06 07:45:48;;;;;;;19.58;6.57;;;;;;;;;;5045755;28;20045;-47
2022/10/06 07:48:16;;;;;;;11.27;7.97;;;;;;;;;;5043548;28;20033;-45
2022/10/06 07:50:44;;;;;;;17.88;8.05;;;;;;;;;;5039306;28;20043;-47
2022/10/06 07:53:10;;;;;;;20.05;7.15;;;;;;;;;;5036909;28;20548;-50
2022/10/06 07:55:39;;;;;;;15.18;7.15;;;;;;;;;;5063145;28;20072;-52
2022/10/06 07:58:19;;;;;;;7.85;6.28;;;;;;;;;;5060687;28;20488;-48
2022/10/06 08:00:47;;;;;;;21.35;7.47;;;;;;;;;;5065209;28;20097;-46
2022/10/06 08:03:16;;;;;;;19.05;7.45;;;;;;;;;;5062221;28;20064;-50
2022/10/06 08:05:42;;;;;;;22.55;8.85;;;;;;;;;;5068215;28;20028;-44
2022/10/06 08:08:08;;;;;;;23.40;7.40;;;;;;;;;;5065979;28;20032;-46
2022/10/06 08:10:33;;;;;;;17.38;8.27;;;;;;;;;;5067773;28;20629;-45
2022/10/06 08:13:00;;;;;;;14.05;8.35;;;;;;;;;;5061555;28;20195;-48
2022/10/06 08:15:25;;;;;;;15.30;8.68;;;;;;;;;;5062197;28;20036;-47
2022/10/06 08:17:53;;;;;;;12.32;8.77;;;;;;;;;;5066038;28;20041;-47
2022/10/06 08:20:18;;;;;;;13.95;8.57;;;;;;;;;;5067348;28;20388;-51
2022/10/06 08:22:46;;;;;;;16.67;8.25;;;;;;;;;;5066727;28;20178;-50
2022/10/06 08:25:11;;;;;;;18.80;8.45;;;;;;;;;;5067796;28;20024;-47
2022/10/06 08:27:37;;;;;;;14.25;7.57;;;;;;;;;;5074034;28;20035;-46
2022/10/06 08:30:04;;;;;;;14.25;8.27;;;;;;;;;;5083616;28;20112;-49
2022/10/06 08:32:31;;;;;;;10.88;7.28;;;;;;;;;;5084899;28;20055;-50
2022/10/06 08:34:57;;;;;;;16.25;8.10;;;;;;;;;;5085619;28;20113;-48
2022/10/06 08:37:26;;;;;;;10.85;7.70;;;;;;;;;;5078503;28;20488;-49
2022/10/06 08:39:55;;;;;;;9.80;7.75;;;;;;;;;;5067386;28;20024;-50
2022/10/06 08:42:31;;;;;;;11.18;7.68;;;;;;;;;;5061005;28;20048;-47
2022/10/06 08:45:02;;;;;;;13.90;7.80;;;;;;;;;;5061876;28;20134;-51
2022/10/06 08:47:32;;;;;;;10.20;6.65;;;;;;;;;;5066740;28;20044;-47
2022/10/06 08:49:58;;;;;;;10.43;5.18;;;;;;;;;;5080834;28;20060;-51
2022/10/06 08:52:45;;;;;;;10.65;5.22;;;;;;;;;;5085926;27;20050;-47
2022/10/06 08:55:28;;;;;;;7.95;4.78;;;;;;;;;;5081395;28;20031;-45
2022/10/06 08:57:59;;;;;;;6.43;3.28;;;;;;;;;;5080671;28;20590;-44
2022/10/06 09:00:24;;;;;;;6.53;3.57;;;;;;;;;;5078471;28;20040;-46
2022/10/06 09:02:50;;;;;;;9.60;3.55;;;;;;;;;;5081154;28;20626;-44
2022/10/06 09:05:24;;;;;;;6.57;3.10;;;;;;;;;;5085315;28;20154;-44
2022/10/06 09:07:58;;;;;;;10.05;3.35;;;;;;;;;;5080586;28;20400;-45
2022/10/06 09:10:48;;;;;;;7.97;3.10;;;;;;;;;;5085170;28;20389;-47
2022/10/06 09:13:36;;;;;;;4.93;2.75;;;;;;;;;;5079626;28;20037;-46
2022/10/06 09:16:06;;;;;;;9.93;3.20;;;;;;;;;;5085824;28;20020;-45
2022/10/06 09:18:48;;;;;;;4.80;3.00;;;;;;;;;;5086932;28;20044;-47
2022/10/06 09:21:35;;;;;;;5.47;2.90;;;;;;;;;;5085298;28;20035;-47
2022/10/06 09:24:18;;;;;;;5.60;3.05;;;;;;;;;;5065401;28;20041;-46
2022/10/06 09:26:48;;;;;;;7.78;2.88;;;;;;;;;;5073690;28;20465;-46
2022/10/06 09:29:13;;;;;;;12.57;3.15;;;;;;;;;;5081730;28;20046;-44
2022/10/06 09:31:42;;;;;;;4.45;3.00;;;;;;;;;;5082588;28;20492;-46
2022/10/06 09:34:07;;;;;;;9.98;4.03;;;;;;;;;;5083870;28;20046;-45
2022/10/06 09:36:59;;;;;;;10.10;3.90;;;;;;;;;;5085293;28;20380;-44
2022/10/06 09:39:25;;;;;;;7.93;3.40;;;;;;;;;;5084376;28;20052;-47
2022/10/06 09:41:53;;;;;;;13.15;6.30;;;;;;;;;;5083545;28;20031;-46
2022/10/06 09:44:30;;;;;;;18.20;5.82;;;;;;;;;;5081001;28;20145;-45
2022/10/06 09:46:55;;;;;;;14.18;4.90;;;;;;;;;;5085154;28;20020;-45
2022/10/06 09:49:26;;;;;;;11.20;4.38;;;;;;;;;;5079625;28;20027;-48
2022/10/06 09:52:15;;;;;;;12.25;4.72;;;;;;;;;;5085737;28;20032;-44
2022/10/06 09:54:43;;;;;;;6.95;4.20;;;;;;;;;;5078294;28;20063;-49
2022/10/06 09:57:25;;;;;;;7.82;4.25;;;;;;;;;;5078560;28;20091;-47
2022/10/06 09:59:51;;;;;;;14.93;3.65;;;;;;;;;;5076477;28;20056;-47
2022/10/06 10:02:35;;;;;;;13.73;4.43;;;;;;;;;;5084021;28;20033;-45
2022/10/06 10:05:06;;;;;;;9.60;4.00;;;;;;;;;;5082669;28;20111;-44
2022/10/06 10:07:34;;;;;;;11.15;3.70;;;;;;;;;;5080002;28;20058;-44
2022/10/06 10:10:14;;;;;;;10.15;3.55;;;;;;;;;;5064240;28;20105;-47
2022/10/06 10:12:52;;;;;;;13.55;4.13;;;;;;;;;;5061967;28;20515;-45
2022/10/06 10:15:17;;;;;;;12.20;4.00;;;;;;;;;;5064143;28;20090;-44
2022/10/06 10:17:51;;;;;;;9.65;3.70;;;;;;;;;;5066882;28;20044;-45
2022/10/06 10:20:33;;;;;;;8.07;3.20;;;;;;;;;;5069022;28;20024;-45
2022/10/06 10:23:06;;;;;;;10.20;3.05;;;;;;;;;;5077779;28;20036;-45
2022/10/06 10:26:06;;;;;;;12.43;3.78;;;;;;;;;;5084802;28;20085;-45
2022/10/06 10:28:49;;;;;;;7.38;3.58;;;;;;;;;;5066875;28;20049;-45
2022/10/06 10:31:25;;;;;;;5.95;3.38;;;;;;;;;;5064866;28;20033;-49
2022/10/06 10:34:06;;;;;;;7.93;3.50;;;;;;;;;;5078374;28;20118;-44
2022/10/06 10:36:58;;;;;;;7.80;3.10;;;;;;;;;;5086935;28;20022;-45
2022/10/06 10:39:38;;;;;;;8.27;3.90;;;;;;;;;;5075751;28;20478;-44
2022/10/06 10:42:17;;;;;;;5.80;3.28;;;;;;;;;;5085944;28;20060;-43
2022/10/06 10:45:06;;;;;;;7.82;3.10;;;;;;;;;;5088116;28;20048;-45
2022/10/06 10:47:40;;;;;;;5.90;3.65;;;;;;;;;;5083027;28;20562;-44
2022/10/06 10:50:30;;;;;;;8.57;3.53;;;;;;;;;;5088614;28;20032;-46
2022/10/06 10:53:07;;;;;;;7.35;3.95;;;;;;;;;;5087634;28;20143;-44
2022/10/06 10:55:40;;;;;;;14.40;3.60;;;;;;;;;;5085473;28;20036;-51
2022/10/06 10:58:35;;;;;;;11.30;3.45;;;;;;;;;;5070180;28;20102;-44
2022/10/06 11:01:22;;;;;;;11.38;3.70;;;;;;;;;;5064688;28;20048;-45
2022/10/06 11:03:55;;;;;;;6.35;3.35;;;;;;;;;;5058428;28;20037;-44
2022/10/06 11:06:54;;;;;;;7.95;3.30;;;;;;;;;;5066026;28;20473;-48
2022/10/06 11:09:22;;;;;;;8.23;3.50;;;;;;;;;;5069507;28;20378;-44
2022/10/06 11:12:00;;;;;;;6.82;3.10;;;;;;;;;;5065938;28;20027;-47
2022/10/06 11:14:53;;;;;;;3.92;2.70;;;;;;;;;;5086686;28;21858;-45
2022/10/06 11:17:32;;;;;;;4.65;3.33;;;;;;;;;;5078010;28;20075;-45
2022/10/06 11:20:12;;;;;;;6.75;3.30;;;;;;;;;;5062190;28;20706;-44
2022/10/06 11:22:51;;;;;;;6.53;3.70;;;;;;;;;;5068068;28;20132;-44
2022/10/06 11:25:54;;;;;;;5.13;3.08;;;;;;;;;;5080338;28;20033;-47
2022/10/06 11:28:27;;;;;;;9.55;3.10;;;;;;;;;;5071327;28;20059;-44
2022/10/06 11:31:08;;;;;;;9.88;4.00;;;;;;;;;;5062935;28;21030;-46
2022/10/06 11:33:49;;;;;;;5.20;2.90;;;;;;;;;;5082439;28;20078;-47
2022/10/06 11:36:37;;;;;;;6.20;3.10;;;;;;;;;;5087758;28;20031;-44
2022/10/06 11:39:24;;;;;;;8.15;3.53;;;;;;;;;;5082079;28;20385;-44
2022/10/06 11:42:00;;;;;;;8.30;3.03;;;;;;;;;;5083884;28;20024;-52
2022/10/06 11:44:41;;;;;;;7.07;3.15;;;;;;;;;;5067484;28;20040;-50
2022/10/06 11:47:12;;;;;;;10.13;3.03;;;;;;;;;;5066373;28;20047;-44
2022/10/06 11:49:52;;;;;;;4.65;2.63;;;;;;;;;;5065607;28;20025;-50
2022/10/06 11:52:17;;;;;;;7.75;2.88;;;;;;;;;;5069497;28;20677;-45
2022/10/06 11:55:06;;;;;;;10.30;2.65;;;;;;;;;;5086577;28;20040;-44
2022/10/06 11:57:32;;;;;;;8.07;2.40;;;;;;;;;;5081834;28;20130;-46
2022/10/06 12:00:03;;;;;;;5.13;2.63;;;;;;;;;;5084458;28;20028;-46
2022/10/06 12:02:31;;;;;;;6.82;2.10;;;;;;;;;;5075300;28;20068;-44
2022/10/06 12:05:09;;;;;;;4.18;2.33;;;;;;;;;;5061792;28;20393;-44
2022/10/06 12:08:00;;;;;;;5.63;2.08;;;;;;;;;;5061486;28;20091;-46
2022/10/06 12:10:28;;;;;;;8.23;2.33;;;;;;;;;;5048299;28;20049;-45
2022/10/06 12:13:12;;;;;;;4.35;1.90;;;;;;;;;;5059043;28;20035;-46
2022/10/06 12:16:00;;;;;;;3.88;1.80;;;;;;;;;;5076332;28;20085;-49
2022/10/06 12:18:41;;;;;;;6.20;2.25;;;;;;;;;;5058861;28;20033;-44
2022/10/06 12:21:23;;;;;;;11.07;2.28;;;;;;;;;;5057693;28;20032;-45
2022/10/06 12:24:01;;;;;;;3.92;1.73;;;;;;;;;;5060395;28;20128;-46
2022/10/06 12:26:51;;;;;;;5.35;2.17;;;;;;;;;;5056788;28;20028;-46
2022/10/06 12:29:44;;;;;;;3.63;2.28;;;;;;;;;;5061449;28;20638;-45
2022/10/06 12:32:21;;;;;;;7.00;2.13;;;;;;;;;;5022547;28;20503;-45
2022/10/06 12:35:02;;;;;;;4.57;2.08;;;;;;;;;;5037384;28;20147;-47
2022/10/06 12:37:27;;;;;;;9.48;3.17;;;;;;;;;;5038067;28;20037;-44
2022/10/06 12:40:31;;;;;;;10.02;5.90;;;;;;;;;;5037711;28;20041;-47
2022/10/06 12:43:46;;;;;;;19.70;14.77;;;;;;;;;;5033812;28;20041;-50
2022/10/06 12:46:17;;;;;;;10.98;5.55;;;;;;;;;;4943788;29;20051;-45
2022/10/06 12:49:13;;;;;;;10.43;2.03;;;;;;;;;;4943438;28;20167;-45
2022/10/06 12:51:44;;;;;;;3.63;2.05;;;;;;;;;;4943812;28;20122;-45
2022/10/06 12:54:19;;;;;;;3.92;1.85;;;;;;;;;;4945699;29;20058;-50
2022/10/06 12:56:57;;;;;;;11.40;5.45;;;;;;;;;;4943771;28;20059;-50
2022/10/06 12:59:33;;;;;;;9.00;3.90;;;;;;;;;;4940848;28;20472;-48
2022/10/06 13:02:09;;;;;;;9.68;2.15;;;;;;;;;;4940478;28;20043;-48
2022/10/06 13:04:43;;;;;;;9.57;2.33;;;;;;;;;;4944482;28;20035;-49
2022/10/06 13:07:43;;;;;;;5.97;2.45;;;;;;;;;;4946174;28;20126;-49
2022/10/06 13:10:14;;;;;;;11.60;3.67;;;;;;;;;;4939863;28;20076;-50
2022/10/06 13:12:48;;;;;;;7.07;2.80;;;;;;;;;;4941756;28;20047;-45
2022/10/06 13:15:38;;;;;;;8.98;2.22;;;;;;;;;;4942363;28;20083;-48
2022/10/06 13:18:12;;;;;;;3.55;1.60;;;;;;;;;;4938898;28;20051;-48
2022/10/06 13:20:45;;;;;;;6.40;2.05;;;;;;;;;;4945155;28;20050;-48
2022/10/06 13:23:30;;;;;;;7.47;2.25;;;;;;;;;;4978416;28;20046;-44
2022/10/06 13:26:05;;;;;;;5.70;1.90;;;;;;;;;;4977564;28;20042;-51
2022/10/06 13:28:35;;;;;;;8.45;2.35;;;;;;;;;;4973017;28;20100;-46
2022/10/06 13:31:18;;;;;;;11.73;3.10;;;;;;;;;;4977519;28;20035;-48
2022/10/06 13:33:45;;;;;;;6.75;2.30;;;;;;;;;;4975228;28;20217;-50
2022/10/06 13:36:11;;;;;;;6.35;3.70;;;;;;;;;;4975217;28;20093;-53
2022/10/06 13:38:38;;;;;;;5.25;1.80;;;;;;;;;;4974862;28;20038;-53
2022/10/06 13:41:05;;;;;;;7.07;2.35;;;;;;;;;;4977007;28;20071;-50
2022/10/06 13:43:31;;;;;;;5.78;1.95;;;;;;;;;;4977873;28;20042;-51
2022/10/06 13:45:58;;;;;;;8.88;4.70;;;;;;;;;;4986249;28;20125;-52
2022/10/06 13:48:25;;;;;;;7.13;2.58;;;;;;;;;;5067300;28;20128;-53
2022/10/06 13:50:54;;;;;;;11.75;3.80;;;;;;;;;;5061135;28;20102;-50
2022/10/06 13:53:30;;;;;;;3.78;1.95;;;;;;;;;;5063879;28;20047;-49
2022/10/06 13:55:57;;;;;;;5.65;2.30;;;;;;;;;;5067022;28;20058;-48
2022/10/06 13:58:28;;;;;;;7.63;2.40;;;;;;;;;;5065829;28;20033;-53
2022/10/06 14:00:59;;;;;;;5.22;2.53;;;;;;;;;;5066103;28;20024;-49
2022/10/06 14:03:33;;;;;;;5.28;2.50;;;;;;;;;;5068760;28;20079;-50
2022/10/06 14:06:06;;;;;;;8.38;3.38;;;;;;;;;;5064102;28;20025;-51
2022/10/06 14:08:31;;;;;;;8.13;2.80;;;;;;;;;;5062707;28;20052;-51
2022/10/06 14:10:57;;;;;;;4.13;2.10;;;;;;;;;;5064690;28;20036;-46
2022/10/06 14:13:53;;;;;;;7.45;2.50;;;;;;;;;;5060681;28;20785;-49
2022/10/06 14:16:21;;;;;;;9.52;5.47;;;;;;;;;;5062347;28;20032;-51
2022/10/06 14:18:57;;;;;;;5.38;1.90;;;;;;;;;;5065292;28;20508;-49
2022/10/06 14:21:34;;;;;;;6.35;2.05;;;;;;;;;;5063764;28;20500;-52
2022/10/06 14:24:03;;;;;;;6.15;2.30;;;;;;;;;;5070514;28;20066;-49
2022/10/06 14:26:33;;;;;;;6.05;1.80;;;;;;;;;;5067141;28;20035;-52
2022/10/06 14:28:59;;;;;;;5.03;1.60;;;;;;;;;;5062041;28;20081;-53
2022/10/06 14:31:27;;;;;;;3.85;1.73;;;;;;;;;;5066505;28;20037;-50
2022/10/06 14:33:54;;;;;;;8.73;2.00;;;;;;;;;;5067037;28;20040;-51
2022/10/06 14:36:22;;;;;;;4.15;1.88;;;;;;;;;;5058296;28;20044;-51
2022/10/06 14:38:50;;;;;;;7.05;2.28;;;;;;;;;;5058638;28;20106;-47
2022/10/06 14:41:18;;;;;;;4.28;1.75;;;;;;;;;;5059109;28;20535;-52
2022/10/06 14:43:46;;;;;;;3.60;1.77;;;;;;;;;;5058314;28;20048;-47
2022/10/06 14:46:13;;;;;;;2.22;1.70;;;;;;;;;;5063486;28;20052;-50
2022/10/06 14:48:38;;;;;;;6.57;2.00;;;;;;;;;;5061760;28;21598;-48
2022/10/06 14:51:04;;;;;;;8.18;2.40;;;;;;;;;;5062648;28;20554;-47
2022/10/06 14:53:30;;;;;;;8.25;2.55;;;;;;;;;;5062450;28;20040;-47
2022/10/06 14:56:12;;;;;;;8.60;2.45;;;;;;;;;;5066167;28;20036;-50
2022/10/06 14:58:42;;;;;;;6.95;2.60;;;;;;;;;;5066398;28;20043;-45
2022/10/06 15:01:12;;;;;;;3.80;2.15;;;;;;;;;;5058448;28;20031;-45
2022/10/06 15:03:37;;;;;;;9.73;2.08;;;;;;;;;;5057053;28;20110;-45
2022/10/06 15:08:51;;;;;;;4.70;2.30;;;;;;;;;;5064173;28;20534;-51
2022/10/06 15:11:19;;;;;;;4.82;2.17;;;;;;;;;;5064701;28;20048;-45
2022/10/06 15:13:45;;;;;;;5.88;2.58;;;;;;;;;;5061913;28;20590;-49
2022/10/06 15:16:12;;;;;;;14.07;2.50;;;;;;;;;;5062104;28;20059;-52